Time;durP1;ratioP1;P1;durP2;ratioP2;P2;SDS_P1;SDS_P2;PMS_P1;PMS_P2;Temp;Humidity;BMP_temperature;BMP_pressure;BME280_temperature;BME280_humidity;BME280_pressure;Samples;Min_cycle;Max_cycle;Signal;HPM_P1;HPM_P2
2023/06/10 00:02:40;;;;;;;7.20;6.70;;;20.20;85.90;;;;;;10542138;28;20217;-77
2023/06/10 00:07:43;;;;;;;7.33;6.73;;;20.20;83.60;;;;;;10541629;28;20220;-77
2023/06/10 00:12:45;;;;;;;8.00;7.40;;;20.20;84.70;;;;;;10541368;28;20189;-77
2023/06/10 00:17:48;;;;;;;8.07;7.47;;;20.10;84.80;;;;;;10541908;28;20209;-77
2023/06/10 00:22:52;;;;;;;8.97;8.17;;;20.00;85.60;;;;;;10542613;28;20640;-78
2023/06/10 00:27:54;;;;;;;7.67;7.03;;;20.00;86.60;;;;;;10523241;28;20246;-77
2023/06/10 00:32:56;;;;;;;8.17;7.37;;;19.90;85.70;;;;;;10540847;28;20561;-77
2023/06/10 00:38:00;;;;;;;8.20;7.60;;;19.90;85.60;;;;;;10522010;28;20251;-78
2023/06/10 00:43:02;;;;;;;8.00;7.40;;;19.90;86.70;;;;;;10523158;28;20689;-78
2023/06/10 00:48:05;;;;;;;8.83;8.13;;;19.90;87.60;;;;;;10539356;28;20223;-77
2023/06/10 00:53:09;;;;;;;9.30;8.60;;;19.80;85.70;;;;;;10539854;28;20201;-77
2023/06/10 00:58:12;;;;;;;8.57;7.87;;;19.80;85.90;;;;;;10520321;28;20219;-79
2023/06/10 01:03:17;;;;;;;8.73;7.93;;;19.70;88.00;;;;;;10534494;28;20231;-78
2023/06/10 01:08:30;;;;;;;8.30;7.60;;;19.70;88.50;;;;;;10522864;28;20642;-77
2023/06/10 01:13:33;;;;;;;8.40;7.80;;;19.70;87.10;;;;;;10541292;28;20196;-77
2023/06/10 01:18:35;;;;;;;7.33;6.83;;;19.60;87.30;;;;;;10521691;28;20212;-78
2023/06/10 01:23:39;;;;;;;7.57;6.97;;;19.60;88.50;;;;;;10518983;28;20219;-80
2023/06/10 01:28:48;;;;;;;8.57;7.97;;;19.50;88.90;;;;;;10502407;28;20258;-79
2023/06/10 01:33:53;;;;;;;7.73;7.17;;;19.50;89.10;;;;;;10537039;28;20204;-78
2023/06/10 01:38:58;;;;;;;8.23;7.73;;;19.40;88.70;;;;;;10521152;28;20295;-79
2023/06/10 01:44:00;;;;;;;7.97;7.37;;;19.40;89.50;;;;;;10522682;28;20250;-79
2023/06/10 01:49:02;;;;;;;7.67;7.10;;;19.30;90.40;;;;;;10518447;28;20212;-78
2023/06/10 01:54:06;;;;;;;7.67;7.17;;;19.30;89.60;;;;;;10522178;28;20197;-78
2023/06/10 01:59:08;;;;;;;7.50;6.90;;;19.30;90.00;;;;;;10540066;28;20240;-78
2023/06/10 02:04:10;;;;;;;7.77;7.27;;;19.30;90.20;;;;;;10523009;28;20216;-78
2023/06/10 02:09:14;;;;;;;7.73;7.20;;;19.20;90.00;;;;;;10526506;28;20282;-77
2023/06/10 02:14:16;;;;;;;7.83;7.23;;;19.10;90.40;;;;;;10528510;28;20196;-78
2023/06/10 02:19:21;;;;;;;8.40;7.80;;;19.10;90.60;;;;;;10547893;28;20220;-77
2023/06/10 02:24:24;;;;;;;8.13;7.50;;;19.10;90.40;;;;;;10530144;28;20396;-79
2023/06/10 02:29:26;;;;;;;7.50;7.00;;;19.10;91.10;;;;;;10530377;28;20740;-79
2023/06/10 02:34:29;;;;;;;7.80;7.20;;;19.00;90.60;;;;;;10531218;28;20192;-78
2023/06/10 02:39:33;;;;;;;8.30;7.73;;;19.00;91.00;;;;;;10514066;22;20292;-83
2023/06/10 02:44:38;;;;;;;8.80;8.10;;;19.00;91.10;;;;;;10481086;28;20684;-84
2023/06/10 02:49:41;;;;;;;8.30;7.80;;;19.00;91.10;;;;;;10499936;28;20232;-84
2023/06/10 02:54:46;;;;;;;7.77;7.27;;;18.90;91.30;;;;;;10482446;28;20189;-83
2023/06/10 02:59:48;;;;;;;8.10;7.50;;;18.90;91.30;;;;;;10499826;28;20209;-82
2023/06/10 03:04:53;;;;;;;7.20;6.70;;;18.90;91.00;;;;;;10479437;28;20710;-84
2023/06/10 03:09:57;;;;;;;7.73;7.23;;;18.80;91.30;;;;;;10481875;28;20700;-83
2023/06/10 03:14:59;;;;;;;6.87;6.37;;;18.80;91.20;;;;;;10481443;28;20193;-84
2023/06/10 03:20:05;;;;;;;7.37;6.87;;;18.80;91.30;;;;;;10480469;28;20221;-84
2023/06/10 03:25:13;;;;;;;8.23;7.60;;;18.70;91.00;;;;;;10498099;28;20263;-83
2023/06/10 03:30:16;;;;;;;7.17;6.67;;;18.70;91.40;;;;;;10476534;28;20220;-84
2023/06/10 03:35:22;;;;;;;8.33;7.73;;;18.70;91.30;;;;;;10479305;28;20212;-83
2023/06/10 03:40:26;;;;;;;7.50;7.00;;;18.70;91.90;;;;;;10461540;28;20233;-84
2023/06/10 03:45:29;;;;;;;6.93;6.53;;;18.60;91.40;;;;;;10476995;28;20213;-84
2023/06/10 03:50:32;;;;;;;7.90;7.30;;;18.60;92.20;;;;;;10477834;28;20243;-85
2023/06/10 03:55:36;;;;;;;7.67;7.17;;;18.70;92.30;;;;;;10459838;28;20258;-85
2023/06/10 04:00:41;;;;;;;8.90;8.20;;;18.70;92.60;;;;;;10483991;28;20213;-85
2023/06/10 04:05:43;;;;;;;7.30;6.80;;;18.60;91.80;;;;;;10478665;28;20216;-84
2023/06/10 04:10:47;;;;;;;8.13;7.53;;;18.70;92.40;;;;;;10514206;28;20210;-84
2023/06/10 04:15:49;;;;;;;7.50;7.00;;;18.60;92.60;;;;;;10481768;28;20228;-85
2023/06/10 04:20:53;;;;;;;6.53;6.03;;;18.70;92.50;;;;;;10458125;28;20290;-84
2023/06/10 04:25:56;;;;;;;7.77;7.17;;;18.60;92.50;;;;;;10494278;28;20323;-85
2023/06/10 04:31:01;;;;;;;6.90;6.30;;;18.60;92.80;;;;;;10474179;28;20753;-84
2023/06/10 04:36:06;;;;;;;7.00;6.50;;;18.70;93.50;;;;;;10478242;28;20185;-85
2023/06/10 04:41:10;;;;;;;6.63;5.97;;;18.70;92.80;;;;;;10496046;28;20220;-85
2023/06/10 04:46:13;;;;;;;7.13;6.63;;;18.70;93.30;;;;;;10461082;28;20243;-85
2023/06/10 04:51:16;;;;;;;7.47;6.87;;;18.80;93.60;;;;;;10477991;28;20629;-85
2023/06/10 04:56:20;;;;;;;7.13;6.63;;;18.80;93.30;;;;;;10522530;28;20192;-84
2023/06/10 05:01:22;;;;;;;7.00;6.50;;;18.80;93.90;;;;;;10497859;28;20221;-84
2023/06/10 05:06:24;;;;;;;8.63;8.00;;;18.80;93.90;;;;;;10494189;28;20221;-84
2023/06/10 05:11:27;;;;;;;7.23;6.73;;;18.90;93.80;;;;;;10496225;28;20632;-84
2023/06/10 05:16:29;;;;;;;7.80;7.10;;;18.90;93.70;;;;;;10478155;28;20196;-84
2023/06/10 05:21:31;;;;;;;7.43;6.83;;;19.00;93.20;;;;;;10486537;28;20205;-85
2023/06/10 05:26:37;;;;;;;8.00;7.40;;;19.00;93.50;;;;;;10477067;28;20770;-85
2023/06/10 05:31:40;;;;;;;8.23;7.63;;;19.10;93.40;;;;;;10458833;28;20262;-85
2023/06/10 05:36:42;;;;;;;7.97;7.47;;;19.10;93.20;;;;;;10495947;28;20274;-85
2023/06/10 05:41:45;;;;;;;7.80;7.30;;;19.20;93.70;;;;;;10483347;28;20225;-84
2023/06/10 05:46:47;;;;;;;8.20;7.70;;;19.20;94.20;;;;;;10483704;28;20303;-85
2023/06/10 05:51:49;;;;;;;8.33;7.53;;;19.30;94.30;;;;;;10478764;28;20313;-85
2023/06/10 05:56:53;;;;;;;7.17;6.60;;;19.40;94.60;;;;;;10480233;28;20296;-85
2023/06/10 06:01:55;;;;;;;8.03;7.33;;;19.50;94.80;;;;;;10500773;28;20240;-85
2023/06/10 06:06:57;;;;;;;7.80;7.20;;;19.60;94.10;;;;;;10480439;28;20267;-86
2023/06/10 06:12:01;;;;;;;7.43;6.83;;;19.70;93.40;;;;;;10499256;28;20596;-85
2023/06/10 06:17:03;;;;;;;6.63;6.23;;;19.80;94.30;;;;;;10481035;28;20185;-85
2023/06/10 06:22:05;;;;;;;8.10;7.50;;;19.90;94.90;;;;;;10477591;28;20244;-85
2023/06/10 06:27:10;;;;;;;8.00;7.40;;;20.10;94.20;;;;;;10472033;28;20213;-85
2023/06/10 06:32:12;;;;;;;7.53;7.03;;;20.20;94.30;;;;;;10507087;28;20221;-85
2023/06/10 06:37:14;;;;;;;7.70;7.20;;;20.30;93.80;;;;;;10481094;28;20240;-85
2023/06/10 06:42:21;;;;;;;7.23;6.53;;;20.60;93.50;;;;;;10503142;28;20208;-85
2023/06/10 06:47:33;;;;;;;7.00;6.43;;;20.90;93.00;;;;;;10479015;28;20241;-84
2023/06/10 06:52:35;;;;;;;7.23;6.67;;;21.20;93.40;;;;;;10496980;28;20197;-85
2023/06/10 06:57:39;;;;;;;6.70;6.30;;;21.60;93.30;;;;;;10460770;28;20292;-85
2023/06/10 07:02:41;;;;;;;7.13;6.63;;;21.90;92.50;;;;;;10513643;28;20204;-85
2023/06/10 07:07:44;;;;;;;6.77;6.27;;;22.20;91.90;;;;;;10495282;28;20243;-85
2023/06/10 07:12:47;;;;;;;7.57;6.70;;;22.50;90.90;;;;;;10477493;28;20221;-86
2023/06/10 07:17:49;;;;;;;6.53;6.13;;;22.90;90.30;;;;;;10473664;28;20232;-85
2023/06/10 07:22:51;;;;;;;6.60;6.00;;;23.30;90.30;;;;;;10476291;28;20205;-85
2023/06/10 07:27:55;;;;;;;7.37;6.77;;;23.80;89.00;;;;;;10494088;28;20282;-85
2023/06/10 07:32:57;;;;;;;6.40;5.90;;;24.30;86.60;;;;;;10495076;28;20198;-86
2023/06/10 07:37:59;;;;;;;6.37;5.90;;;24.80;85.70;;;;;;10494283;28;20310;-86
2023/06/10 07:43:02;;;;;;;6.03;5.63;;;25.30;82.50;;;;;;10472142;28;20193;-85
2023/06/10 07:48:05;;;;;;;5.90;5.50;;;25.80;82.10;;;;;;10475910;28;20278;-86
2023/06/10 07:53:07;;;;;;;6.20;5.60;;;26.40;80.80;;;;;;10493294;28;20197;-86
2023/06/10 07:58:11;;;;;;;6.60;6.10;;;26.80;77.80;;;;;;10475346;28;20205;-86
2023/06/10 08:03:13;;;;;;;6.13;5.53;;;27.30;77.70;;;;;;10471717;28;20613;-85
2023/06/10 08:08:15;;;;;;;6.70;6.20;;;27.70;76.10;;;;;;10473391;28;20240;-86
2023/06/10 08:13:18;;;;;;;7.37;6.70;;;28.20;74.30;;;;;;10493174;28;20197;-86
2023/06/10 08:18:20;;;;;;;6.27;5.80;;;28.40;71.60;;;;;;10492453;28;20224;-86
2023/06/10 08:23:22;;;;;;;6.30;5.80;;;28.70;73.10;;;;;;10490971;28;20674;-86
2023/06/10 08:28:26;;;;;;;5.67;5.17;;;29.00;71.20;;;;;;10492063;28;20205;-85
2023/06/10 08:33:28;;;;;;;5.90;5.50;;;29.30;69.90;;;;;;10492045;28;20251;-85
2023/06/10 08:38:30;;;;;;;5.30;5.00;;;29.50;68.40;;;;;;10490525;28;20663;-85
2023/06/10 08:43:38;;;;;;;5.20;4.90;;;29.70;68.20;;;;;;10491340;28;20194;-85
2023/06/10 08:48:44;;;;;;;6.47;5.90;;;30.00;67.70;;;;;;10490745;28;20306;-87
2023/06/10 08:53:53;;;;;;;5.57;5.17;;;30.20;67.20;;;;;;10472232;28;20197;-85
2023/06/10 08:58:58;;;;;;;5.30;5.00;;;30.30;65.90;;;;;;10495667;28;20232;-85
2023/06/10 09:04:01;;;;;;;5.20;4.70;;;30.60;65.10;;;;;;10520219;28;20259;-86
2023/06/10 09:09:04;;;;;;;5.27;4.77;;;30.90;62.30;;;;;;10486596;28;20260;-85
2023/06/10 09:14:07;;;;;;;5.13;4.70;;;31.00;61.10;;;;;;10471202;28;20373;-86
2023/06/10 09:19:09;;;;;;;5.00;4.70;;;31.20;62.00;;;;;;10609103;22;20595;-79
2023/06/10 09:24:12;;;;;;;4.97;4.67;;;31.40;61.40;;;;;;10548202;28;20207;-79
2023/06/10 09:29:15;;;;;;;4.90;4.60;;;31.70;60.70;;;;;;10563665;28;20290;-79
2023/06/10 09:34:17;;;;;;;4.97;4.67;;;31.90;60.20;;;;;;10550719;28;20230;-78
2023/06/10 09:39:20;;;;;;;4.80;4.50;;;32.60;58.70;;;;;;10568546;28;20285;-78
2023/06/10 09:44:25;;;;;;;4.37;4.07;;;33.30;59.10;;;;;;10564761;28;20223;-80
2023/06/10 09:49:30;;;;;;;5.00;4.70;;;34.20;56.80;;;;;;10566254;28;20215;-78
2023/06/10 09:54:33;;;;;;;4.32;4.03;;;35.10;55.60;;;;;;10560924;28;20651;-79
2023/06/10 09:59:38;;;;;;;5.00;4.60;;;35.40;54.50;;;;;;10549674;28;20234;-78
2023/06/10 10:04:40;;;;;;;4.35;4.05;;;36.50;52.90;;;;;;10564830;28;20225;-78
2023/06/10 10:09:43;;;;;;;4.88;4.57;;;37.70;51.70;;;;;;10566391;28;20294;-79
2023/06/10 10:14:48;;;;;;;4.50;4.20;;;37.00;51.00;;;;;;10563934;28;20650;-79
2023/06/10 10:19:54;;;;;;;5.10;4.50;;;36.10;52.40;;;;;;10563843;28;20244;-79
2023/06/10 10:25:00;;;;;;;5.73;5.00;;;34.90;53.30;;;;;;10566005;28;20234;-78
2023/06/10 10:30:08;;;;;;;5.03;4.63;;;33.50;54.60;;;;;;10552071;28;20531;-78
2023/06/10 10:35:17;;;;;;;3.90;3.70;;;32.30;56.10;;;;;;10573265;28;20232;-79
2023/06/10 10:40:21;;;;;;;5.37;4.97;;;31.40;57.10;;;;;;10573854;28;20204;-78
2023/06/10 10:45:24;;;;;;;5.00;4.70;;;30.60;57.80;;;;;;10572108;28;20590;-80
2023/06/10 10:50:30;;;;;;;5.60;5.20;;;29.80;60.40;;;;;;10563948;28;20206;-78
2023/06/10 10:55:33;;;;;;;6.00;5.33;;;29.30;58.90;;;;;;10575487;28;20205;-77
2023/06/10 11:00:38;;;;;;;5.17;4.77;;;28.90;61.30;;;;;;10568335;28;20218;-79
2023/06/10 11:05:44;;;;;;;5.10;4.80;;;28.60;61.20;;;;;;10549483;28;20270;-79
2023/06/10 11:10:52;;;;;;;4.80;4.50;;;28.50;61.50;;;;;;10566393;28;20727;-79
2023/06/10 11:15:59;;;;;;;5.87;5.37;;;28.40;62.00;;;;;;10564501;28;20228;-79
2023/06/10 11:21:04;;;;;;;5.73;5.37;;;28.40;60.70;;;;;;10552578;28;20193;-78
2023/06/10 11:26:17;;;;;;;6.10;5.60;;;28.20;61.30;;;;;;10563753;28;20212;-78
2023/06/10 11:31:22;;;;;;;5.90;5.50;;;28.00;63.00;;;;;;10566800;28;20200;-78
2023/06/10 11:36:24;;;;;;;5.50;5.10;;;27.80;63.40;;;;;;10557837;28;20212;-78
2023/06/10 11:41:27;;;;;;;5.23;4.93;;;27.60;63.30;;;;;;10564049;28;20192;-78
2023/06/10 11:46:31;;;;;;;6.00;5.60;;;27.50;63.70;;;;;;10554692;28;20215;-77
2023/06/10 11:51:36;;;;;;;6.10;5.60;;;27.40;63.50;;;;;;10564990;28;20259;-77
2023/06/10 11:56:38;;;;;;;6.17;5.73;;;27.30;65.30;;;;;;10563150;28;20288;-79
2023/06/10 12:01:44;;;;;;;5.90;5.50;;;27.20;66.60;;;;;;10563520;28;20202;-78
2023/06/10 12:06:47;;;;;;;5.80;5.40;;;27.40;63.80;;;;;;10565896;28;20307;-79
2023/06/10 12:11:52;;;;;;;5.97;5.47;;;27.40;64.70;;;;;;10563214;28;20200;-77
2023/06/10 12:16:57;;;;;;;5.90;5.33;;;27.60;63.20;;;;;;10560600;28;20273;-79
2023/06/10 12:22:02;;;;;;;6.10;5.33;;;27.80;61.60;;;;;;10567325;28;20202;-77
2023/06/10 12:27:04;;;;;;;5.17;4.87;;;27.90;63.10;;;;;;10564097;28;20283;-77
2023/06/10 12:32:10;;;;;;;5.47;5.13;;;28.00;63.30;;;;;;10551731;28;20262;-77
2023/06/10 12:37:14;;;;;;;4.80;4.50;;;28.00;61.90;;;;;;10552850;28;20768;-77
2023/06/10 12:42:16;;;;;;;7.53;6.90;;;27.90;62.90;;;;;;10562735;28;20192;-79
2023/06/10 12:47:19;;;;;;;6.10;5.60;;;27.70;63.70;;;;;;10532176;28;20216;-79
2023/06/10 12:52:21;;;;;;;5.10;4.80;;;27.50;62.20;;;;;;10554535;28;20285;-78
2023/06/10 12:57:23;;;;;;;5.10;4.80;;;27.40;61.40;;;;;;10559223;28;20230;-78
2023/06/10 13:02:27;;;;;;;5.43;5.03;;;27.40;64.50;;;;;;10563545;28;20221;-77
2023/06/10 13:07:30;;;;;;;4.83;4.53;;;27.60;61.40;;;;;;10552078;28;20220;-78
2023/06/10 13:12:32;;;;;;;5.23;4.77;;;27.60;63.30;;;;;;10559726;28;20564;-78
2023/06/10 13:17:36;;;;;;;5.27;4.90;;;27.50;63.00;;;;;;10562117;28;20212;-78
2023/06/10 13:22:38;;;;;;;4.50;4.20;;;27.50;62.70;;;;;;10553388;28;20201;-78
2023/06/10 13:27:41;;;;;;;5.43;5.03;;;27.50;63.00;;;;;;10562442;28;20258;-78
2023/06/10 13:32:45;;;;;;;5.10;4.70;;;27.30;62.90;;;;;;10566654;28;20275;-78
2023/06/10 13:37:47;;;;;;;4.63;4.33;;;27.30;63.90;;;;;;10569120;28;20216;-78
2023/06/10 13:42:50;;;;;;;4.43;4.23;;;27.30;63.10;;;;;;10570158;28;20723;-78
2023/06/10 13:47:54;;;;;;;5.43;5.03;;;27.50;61.20;;;;;;10552587;28;20220;-79
2023/06/10 13:52:56;;;;;;;5.30;4.90;;;27.60;61.70;;;;;;10568372;28;20192;-77
2023/06/10 13:57:58;;;;;;;4.93;4.63;;;27.50;60.50;;;;;;10551658;28;20234;-78
2023/06/10 14:03:03;;;;;;;4.00;3.80;;;27.30;60.90;;;;;;10563808;28;20224;-77
2023/06/10 14:08:05;;;;;;;4.80;4.50;;;27.10;63.40;;;;;;10569978;28;20266;-77
2023/06/10 14:13:08;;;;;;;4.77;4.47;;;27.10;61.60;;;;;;10569865;28;20200;-77
2023/06/10 14:18:11;;;;;;;4.60;4.30;;;27.20;61.90;;;;;;10561031;28;20224;-79
2023/06/10 14:23:13;;;;;;;4.80;4.50;;;27.30;63.60;;;;;;10574004;28;20188;-78
2023/06/10 14:28:15;;;;;;;4.50;4.20;;;27.30;62.00;;;;;;10569908;28;20215;-78
2023/06/10 14:33:19;;;;;;;4.40;4.10;;;27.20;62.30;;;;;;10565204;28;20290;-77
2023/06/10 14:38:21;;;;;;;5.37;5.00;;;27.00;64.00;;;;;;10575013;28;20799;-77
2023/06/10 14:43:23;;;;;;;17.43;15.63;;;26.90;65.10;;;;;;10561736;28;20188;-78
2023/06/10 14:48:26;;;;;;;5.80;5.40;;;26.90;63.70;;;;;;10570280;28;20632;-77
2023/06/10 14:53:28;;;;;;;5.50;5.07;;;26.90;63.00;;;;;;10560504;28;20249;-78
2023/06/10 14:58:30;;;;;;;6.20;5.80;;;26.90;63.30;;;;;;10560983;28;20621;-78
2023/06/10 15:03:34;;;;;;;5.43;5.03;;;26.70;65.70;;;;;;10564989;28;20196;-77
2023/06/10 15:08:37;;;;;;;5.23;4.73;;;26.60;64.90;;;;;;10570877;28;20254;-78
2023/06/10 15:13:39;;;;;;;5.37;5.03;;;26.40;66.70;;;;;;10568480;28;20196;-78
2023/06/10 15:18:43;;;;;;;5.50;5.20;;;26.40;66.10;;;;;;10606817;22;20308;-85
2023/06/10 15:23:45;;;;;;;6.07;5.67;;;26.30;66.00;;;;;;10593010;27;20196;-83
2023/06/10 15:28:47;;;;;;;5.17;4.87;;;26.40;65.10;;;;;;10597472;27;20716;-86
2023/06/10 15:33:51;;;;;;;5.50;5.20;;;26.30;66.60;;;;;;10598321;27;20199;-85
2023/06/10 15:38:53;;;;;;;5.00;4.70;;;26.30;66.50;;;;;;10598639;27;20211;-85
2023/06/10 15:43:55;;;;;;;5.60;4.97;;;26.30;65.40;;;;;;10597486;27;20206;-83
2023/06/10 15:48:58;;;;;;;5.17;4.87;;;26.40;62.50;;;;;;10599571;27;20378;-84
2023/06/10 15:54:02;;;;;;;5.60;5.17;;;26.40;66.00;;;;;;10586877;27;20260;-85
2023/06/10 15:59:04;;;;;;;5.17;4.80;;;26.40;65.20;;;;;;10583629;27;20574;-83
2023/06/10 16:04:07;;;;;;;5.03;4.70;;;26.50;64.10;;;;;;10581556;27;20200;-84
2023/06/10 16:09:10;;;;;;;4.50;4.20;;;26.50;63.20;;;;;;10562811;27;20264;-85
2023/06/10 16:14:13;;;;;;;4.10;3.90;;;26.50;63.40;;;;;;10582263;27;20196;-85
2023/06/10 16:19:16;;;;;;;4.90;4.60;;;26.40;64.70;;;;;;10596065;27;20674;-85
2023/06/10 16:24:18;;;;;;;4.60;4.30;;;26.30;64.20;;;;;;10577292;27;20192;-85
2023/06/10 16:29:20;;;;;;;5.10;4.70;;;26.20;65.40;;;;;;10581263;27;20666;-85
2023/06/10 16:34:24;;;;;;;5.27;4.97;;;26.20;68.70;;;;;;10615186;27;20446;-84
2023/06/10 16:39:26;;;;;;;5.20;4.90;;;26.10;66.40;;;;;;10618890;27;20737;-84
2023/06/10 16:44:28;;;;;;;8.53;7.73;;;26.20;68.10;;;;;;10614315;27;20191;-84
2023/06/10 16:49:32;;;;;;;4.57;4.27;;;26.20;66.30;;;;;;10609199;27;20227;-85
2023/06/10 16:54:34;;;;;;;4.67;4.37;;;26.20;66.00;;;;;;10591525;27;20635;-84
2023/06/10 16:59:37;;;;;;;4.63;4.33;;;26.20;64.20;;;;;;10596247;27;20434;-85
2023/06/10 17:04:41;;;;;;;4.80;4.50;;;26.20;65.50;;;;;;10608368;27;20566;-85
2023/06/10 17:09:43;;;;;;;5.00;4.63;;;26.20;66.00;;;;;;10595473;27;20269;-86
2023/06/10 17:14:45;;;;;;;5.27;4.87;;;26.20;66.80;;;;;;10603438;27;20294;-87
2023/06/10 17:19:49;;;;;;;5.23;4.73;;;26.30;67.40;;;;;;10602608;28;20239;-85
2023/06/10 17:24:51;;;;;;;5.10;4.70;;;26.40;66.30;;;;;;10602524;28;20252;-86
2023/06/10 17:29:53;;;;;;;6.13;4.90;;;26.40;66.50;;;;;;10582908;28;20224;-85
2023/06/10 17:34:56;;;;;;;5.30;4.90;;;26.40;66.70;;;;;;10602810;28;20191;-85
2023/06/10 17:39:58;;;;;;;4.40;4.10;;;26.30;68.50;;;;;;10575722;27;20246;-86
2023/06/10 17:45:00;;;;;;;4.87;4.53;;;26.20;67.50;;;;;;10589830;27;20556;-86
2023/06/10 17:50:04;;;;;;;6.50;4.60;;;26.10;67.70;;;;;;10608890;27;20216;-85
2023/06/10 17:55:07;;;;;;;5.40;5.03;;;26.10;66.30;;;;;;10593681;27;20187;-85
2023/06/10 18:00:10;;;;;;;5.23;4.17;;;26.20;65.40;;;;;;10608899;27;20188;-86
2023/06/10 18:05:14;;;;;;;4.87;4.57;;;26.10;66.30;;;;;;10614888;27;20188;-86
2023/06/10 18:10:16;;;;;;;5.00;4.70;;;26.00;68.60;;;;;;10622615;27;20222;-85
2023/06/10 18:15:19;;;;;;;4.73;4.43;;;25.80;69.50;;;;;;10616065;27;20220;-78
2023/06/10 18:20:22;;;;;;;4.97;4.63;;;25.70;73.10;;;;;;10617378;27;20188;-86
2023/06/10 18:25:24;;;;;;;5.40;5.00;;;25.50;72.90;;;;;;10622351;27;20218;-86
2023/06/10 18:30:27;;;;;;;8.23;5.17;;;25.30;74.70;;;;;;10637273;27;20194;-86
2023/06/10 18:35:30;;;;;;;5.93;5.53;;;25.20;77.10;;;;;;10578131;28;20278;-86
2023/06/10 18:40:33;;;;;;;7.50;6.90;;;25.00;77.30;;;;;;10593918;28;20200;-86
2023/06/10 18:45:35;;;;;;;6.53;5.97;;;24.90;78.10;;;;;;10598562;28;20212;-88
2023/06/10 18:50:38;;;;;;;6.27;5.87;;;24.80;77.20;;;;;;10556133;28;20196;-87
2023/06/10 18:55:40;;;;;;;5.60;5.30;;;24.70;78.50;;;;;;10641843;27;20216;-86
2023/06/10 19:00:43;;;;;;;5.30;4.90;;;24.60;76.80;;;;;;10601865;28;20582;-86
2023/06/10 19:05:46;;;;;;;6.30;5.70;;;24.60;78.80;;;;;;10613215;27;20215;-86
2023/06/10 19:10:48;;;;;;;7.47;6.87;;;24.50;75.60;;;;;;10621399;27;20195;-86
2023/06/10 19:15:50;;;;;;;5.33;5.03;;;24.40;77.10;;;;;;10595124;27;20224;-86
2023/06/10 19:20:54;;;;;;;8.10;7.47;;;24.30;76.20;;;;;;10593746;27;20215;-86
2023/06/10 19:25:56;;;;;;;6.70;6.20;;;24.30;75.80;;;;;;10588835;27;20225;-86
2023/06/10 19:30:58;;;;;;;7.90;7.30;;;24.20;76.10;;;;;;10606321;27;20200;-86
2023/06/10 19:36:02;;;;;;;5.97;5.57;;;24.20;76.00;;;;;;10618357;27;20215;-87
2023/06/10 19:41:04;;;;;;;6.20;5.70;;;24.10;76.10;;;;;;10600297;27;20221;-86
2023/06/10 19:46:06;;;;;;;6.30;5.80;;;24.00;75.80;;;;;;10621032;27;20211;-86
2023/06/10 19:51:10;;;;;;;5.77;5.37;;;24.00;76.60;;;;;;10617548;27;20626;-86
2023/06/10 19:56:18;;;;;;;5.50;5.10;;;24.00;76.90;;;;;;10599980;27;20238;-86
2023/06/10 20:01:20;;;;;;;5.80;5.40;;;23.90;76.60;;;;;;10602626;27;20192;-86
2023/06/10 20:06:24;;;;;;;6.10;5.70;;;23.90;76.70;;;;;;10604941;27;20223;-86
2023/06/10 20:11:26;;;;;;;6.47;5.87;;;23.90;77.60;;;;;;10616252;27;20571;-85
2023/06/10 20:16:28;;;;;;;6.40;6.00;;;23.80;77.50;;;;;;10619737;27;20303;-86
2023/06/10 20:21:31;;;;;;;5.90;5.40;;;23.80;78.50;;;;;;10620788;27;20219;-86
2023/06/10 20:26:34;;;;;;;6.83;6.33;;;23.70;77.70;;;;;;10594886;27;20223;-86
2023/06/10 20:31:36;;;;;;;5.90;5.50;;;23.70;77.20;;;;;;10625509;27;20191;-85
2023/06/10 20:36:39;;;;;;;5.57;5.17;;;23.70;77.50;;;;;;10598358;27;20238;-86
2023/06/10 20:41:42;;;;;;;6.47;5.97;;;23.70;77.50;;;;;;10620272;27;20200;-85
2023/06/10 20:46:44;;;;;;;6.30;5.90;;;23.60;78.00;;;;;;10618074;27;20212;-87
2023/06/10 20:51:47;;;;;;;6.13;5.73;;;23.60;78.40;;;;;;10616584;27;20184;-86
2023/06/10 20:56:49;;;;;;;7.47;6.77;;;23.50;78.60;;;;;;10613405;27;20516;-86
2023/06/10 21:01:52;;;;;;;7.00;6.50;;;23.40;79.40;;;;;;10617942;27;20191;-85
2023/06/10 21:06:55;;;;;;;6.00;5.60;;;23.40;78.70;;;;;;10594493;27;20283;-86
2023/06/10 21:11:59;;;;;;;6.70;6.20;;;23.40;78.40;;;;;;10595511;27;20220;-86
2023/06/10 21:17:05;;;;;;;6.33;5.83;;;23.40;78.70;;;;;;10602017;22;20590;-82
2023/06/10 21:22:08;;;;;;;5.80;5.40;;;23.40;78.90;;;;;;10592507;28;20199;-81
2023/06/10 21:27:11;;;;;;;5.93;5.53;;;23.40;79.50;;;;;;10619540;28;20485;-82
2023/06/10 21:32:13;;;;;;;6.27;5.77;;;23.40;79.80;;;;;;10602922;28;20206;-83
2023/06/10 21:37:17;;;;;;;6.10;5.60;;;23.40;80.10;;;;;;10622071;28;20231;-82
2023/06/10 21:42:19;;;;;;;6.03;5.63;;;23.30;81.20;;;;;;10621362;28;20252;-84
2023/06/10 21:47:21;;;;;;;5.90;5.50;;;23.20;81.10;;;;;;10622133;28;20580;-81
2023/06/10 21:52:44;;;;;;;6.20;5.80;;;23.10;82.00;;;;;;10605475;28;20215;-82
2023/06/10 21:57:46;;;;;;;7.63;7.03;;;23.10;81.60;;;;;;10623814;28;20260;-83
2023/06/10 22:02:48;;;;;;;6.03;5.50;;;23.00;82.00;;;;;;10624823;28;20191;-85
2023/06/10 22:07:52;;;;;;;6.00;5.60;;;23.00;81.80;;;;;;10619982;28;20211;-82
2023/06/10 22:12:54;;;;;;;6.53;5.93;;;23.00;82.80;;;;;;10610598;28;20257;-82
2023/06/10 22:17:59;;;;;;;6.63;6.13;;;22.90;83.30;;;;;;10593121;28;20252;-82
2023/06/10 22:23:03;;;;;;;7.37;6.77;;;22.90;84.00;;;;;;10612562;28;20195;-83
2023/06/10 22:28:05;;;;;;;6.57;6.07;;;22.80;83.70;;;;;;10608958;27;20219;-84
2023/06/10 22:33:08;;;;;;;6.67;6.07;;;22.70;84.00;;;;;;10596799;27;20207;-83
2023/06/10 22:38:12;;;;;;;6.60;6.10;;;22.60;85.80;;;;;;10632416;27;20708;-82
2023/06/10 22:43:16;;;;;;;8.90;6.00;;;22.50;85.30;;;;;;10613604;27;20214;-84
2023/06/10 22:48:18;;;;;;;7.97;7.27;;;22.40;85.10;;;;;;10632080;27;20223;-83
2023/06/10 22:53:22;;;;;;;6.93;6.43;;;22.30;85.30;;;;;;10614399;27;20264;-83
2023/06/10 22:58:25;;;;;;;6.97;6.47;;;22.30;85.40;;;;;;10632733;27;20622;-82
2023/06/10 23:03:27;;;;;;;6.73;6.23;;;22.10;86.10;;;;;;10619355;27;20215;-84
2023/06/10 23:08:30;;;;;;;7.03;6.53;;;22.10;86.40;;;;;;10617160;27;20574;-86
2023/06/10 23:13:33;;;;;;;6.60;6.10;;;22.00;86.80;;;;;;10608793;27;20210;-83
2023/06/10 23:18:36;;;;;;;6.83;6.43;;;21.90;88.30;;;;;;10631993;27;20222;-83
2023/06/10 23:23:40;;;;;;;6.93;6.43;;;21.80;87.40;;;;;;10631480;27;20191;-85
2023/06/10 23:28:42;;;;;;;6.90;6.20;;;21.80;88.20;;;;;;10613920;27;20215;-83
2023/06/10 23:33:48;;;;;;;6.60;6.10;;;21.70;88.00;;;;;;10610152;27;20252;-83
2023/06/10 23:38:52;;;;;;;6.97;6.37;;;21.70;88.00;;;;;;10608933;27;20238;-83
2023/06/10 23:43:54;;;;;;;7.10;6.57;;;21.60;88.60;;;;;;10609688;27;20199;-81
2023/06/10 23:48:56;;;;;;;7.10;6.50;;;21.60;88.70;;;;;;10628935;27;20605;-82
2023/06/10 23:54:00;;;;;;;6.90;6.40;;;21.60;89.20;;;;;;10590046;27;20240;-82
2023/06/10 23:59:02;;;;;;;6.80;6.30;;;21.50;90.00;;;;;;10628724;27;20219;-84
